createdAt,value
2023-03-26T00:00:57.202Z,99663.28
2023-03-26T00:04:06.675Z,99669.28
2023-03-26T00:07:10.437Z,99668.47
2023-03-26T00:10:20.642Z,99667.53
2023-03-26T00:13:23.368Z,99677.53
2023-03-26T00:16:28.726Z,99677.38
2023-03-26T00:19:33.919Z,99677.28
2023-03-26T00:22:36.594Z,99682.63
2023-03-26T00:25:41.367Z,99679.03
2023-03-26T00:28:44.825Z,99680.16
2023-03-26T00:31:47.490Z,99676.03
2023-03-26T00:34:52.455Z,99679.69
2023-03-26T00:37:55.155Z,99678.09
2023-03-26T00:41:05.931Z,99683.84
2023-03-26T00:44:08.733Z,99685.72
2023-03-26T00:47:11.415Z,99679.63
2023-03-26T00:50:16.420Z,99688.06
2023-03-26T00:53:20.002Z,99689.31
2023-03-26T00:56:22.957Z,99689.03
2023-03-26T00:59:30.205Z,99690.69
2023-03-26T01:02:33.540Z,99682.41
2023-03-26T01:05:48.819Z,99677.91
2023-03-26T01:08:54.597Z,99683.75
2023-03-26T01:11:57.653Z,99671.63
2023-03-26T01:15:03.989Z,99661.63
2023-03-26T01:18:09.923Z,99667.25
2023-03-26T01:21:14.516Z,99665.94
2023-03-26T01:24:18.786Z,99659.09
2023-03-26T01:27:28.857Z,99652.22
2023-03-26T01:30:38.545Z,99652.53
2023-03-26T01:33:48.582Z,99649.13
2023-03-26T01:36:57.345Z,99649.44
2023-03-26T01:40:06.983Z,99653.13
2023-03-26T01:43:13.385Z,99635.28
2023-03-26T01:46:17.555Z,99635.13
2023-03-26T01:49:21.275Z,99635.13
2023-03-26T01:52:26.321Z,99616.59
2023-03-26T01:55:43.535Z,99627.97
2023-03-26T01:58:59.704Z,99614.72
2023-03-26T02:02:11.358Z,99606.69
2023-03-26T02:05:18.744Z,99607.69
2023-03-26T02:08:25.095Z,99598.81
2023-03-26T02:11:35.436Z,99595.16
2023-03-26T02:14:40.896Z,99593.50
2023-03-26T02:17:43.683Z,99589.09
2023-03-26T02:20:46.449Z,99585.41
2023-03-26T02:23:50.917Z,99594.38
2023-03-26T02:26:55.105Z,99592.31
2023-03-26T02:29:57.771Z,99589.28
2023-03-26T02:33:00.529Z,99577.41
2023-03-26T02:36:03.285Z,99574.28
2023-03-26T02:39:06.026Z,99569.66
2023-03-26T02:42:10.066Z,99563.00
2023-03-26T02:45:12.777Z,99556.22
2023-03-26T02:48:16.097Z,99553.16
2023-03-26T02:51:19.533Z,99540.06
2023-03-26T02:54:22.256Z,99528.75
2023-03-26T02:57:26.637Z,99525.00
2023-03-26T03:00:29.591Z,99520.56
2023-03-26T03:03:32.345Z,99518.81
2023-03-26T03:06:35.097Z,99511.41
2023-03-26T03:09:38.012Z,99509.91
2023-03-26T03:12:42.116Z,99507.53
2023-03-26T03:15:44.823Z,99510.03
2023-03-26T03:18:54.245Z,99494.22
2023-03-26T03:21:57.509Z,99496.59
2023-03-26T03:25:00.373Z,99497.75
2023-03-26T03:28:05.246Z,99495.41
2023-03-26T03:31:09.137Z,99493.91
2023-03-26T03:34:11.920Z,99491.22
2023-03-26T03:37:14.624Z,99491.34
2023-03-26T03:40:17.810Z,99495.09
2023-03-26T03:43:21.830Z,99487.25
2023-03-26T03:46:24.558Z,99490.94
2023-03-26T03:49:27.314Z,99486.56
2023-03-26T03:52:30.038Z,99476.84
2023-03-26T03:55:32.754Z,99483.22
2023-03-26T03:58:37.554Z,99473.28
2023-03-26T04:01:43.582Z,99474.16
2023-03-26T04:04:46.402Z,99478.47
2023-03-26T04:07:50.253Z,99464.88
2023-03-26T04:10:53.126Z,99467.56
2023-03-26T04:13:57.206Z,99460.13
2023-03-26T04:16:59.921Z,99459.81
2023-03-26T04:20:07.014Z,99449.44
2023-03-26T04:23:14.334Z,99453.16
2023-03-26T04:26:19.770Z,99455.22
2023-03-26T04:29:27.753Z,99449.97
2023-03-26T04:32:34.287Z,99442.91
2023-03-26T04:35:37.149Z,99429.91
2023-03-26T04:38:43.541Z,99425.38
2023-03-26T04:41:46.986Z,99422.94
2023-03-26T04:44:52.373Z,99414.59
2023-03-26T04:47:55.636Z,99412.88
2023-03-26T04:50:58.651Z,99404.09
2023-03-26T04:54:03.490Z,99397.13
2023-03-26T04:57:12.031Z,99394.66
2023-03-26T05:00:19.642Z,99390.31
2023-03-26T05:03:22.638Z,99381.00
2023-03-26T05:06:27.918Z,99378.16
2023-03-26T05:09:30.678Z,99363.47
2023-03-26T05:12:33.378Z,99368.25
2023-03-26T05:15:37.677Z,99370.94
2023-03-26T05:18:43.266Z,99369.00
2023-03-26T05:21:46.040Z,99366.66
2023-03-26T05:24:48.765Z,99350.88
2023-03-26T05:27:51.816Z,99360.00
2023-03-26T05:30:56.256Z,99351.97
2023-03-26T05:34:03.316Z,99336.97
2023-03-26T05:37:06.860Z,99336.44
2023-03-26T05:40:12.252Z,99333.16
2023-03-26T05:43:14.989Z,99330.84
2023-03-26T05:46:20.401Z,99317.38
2023-03-26T05:49:23.190Z,99316.00
2023-03-26T05:52:26.011Z,99305.06
2023-03-26T05:55:28.911Z,99299.53
2023-03-26T05:58:34.146Z,99303.88
2023-03-26T06:01:38.688Z,99309.53
2023-03-26T06:04:42.583Z,99306.41
2023-03-26T06:07:45.377Z,99307.44
2023-03-26T06:10:48.591Z,99296.97
2023-03-26T06:13:51.702Z,99296.91
2023-03-26T06:16:55.855Z,99290.44
2023-03-26T06:19:58.678Z,99290.22
2023-03-26T06:23:02.017Z,99285.84
2023-03-26T06:26:04.937Z,99268.44
2023-03-26T06:29:07.717Z,99264.22
2023-03-26T06:32:19.536Z,99251.06
2023-03-26T06:35:22.991Z,99259.91
2023-03-26T06:38:25.966Z,99247.56
2023-03-26T06:41:29.806Z,99252.16
2023-03-26T06:44:32.508Z,99247.72
2023-03-26T06:47:36.698Z,99245.31
2023-03-26T06:50:39.445Z,99232.03
2023-03-26T06:53:44.347Z,99234.75
2023-03-26T06:56:47.036Z,99227.38
2023-03-26T06:59:49.853Z,99220.28
2023-03-26T07:02:56.907Z,99214.03
2023-03-26T07:06:03.128Z,99221.66
2023-03-26T07:09:05.828Z,99214.66
2023-03-26T07:12:08.839Z,99208.03
2023-03-26T07:15:12.097Z,99214.16
2023-03-26T07:18:16.170Z,99215.19
2023-03-26T07:21:19.872Z,99209.25
2023-03-26T07:24:23.298Z,99205.16
2023-03-26T07:27:38.553Z,99202.78
2023-03-26T07:30:51.873Z,99196.69
2023-03-26T07:34:04.052Z,99191.50
2023-03-26T07:37:15.564Z,99183.16
2023-03-26T07:40:29.820Z,99173.78
2023-03-26T07:43:51.616Z,99172.44
2023-03-26T07:46:55.171Z,99178.09
2023-03-26T07:49:59.877Z,99170.63
2023-03-26T07:53:02.980Z,99170.31
2023-03-26T07:56:11.430Z,99163.50
2023-03-26T07:59:25.783Z,99148.00
2023-03-26T08:02:48.403Z,99152.69
2023-03-26T08:06:00.398Z,99143.38
2023-03-26T08:09:11.995Z,99141.31
2023-03-26T08:12:37.285Z,99136.31
2023-03-26T08:15:48.225Z,99119.50
2023-03-26T08:18:57.601Z,99100.38
2023-03-26T08:22:09.938Z,99102.56
2023-03-26T08:25:29.738Z,99096.63
2023-03-26T08:28:43.093Z,99098.00
2023-03-26T08:31:49.046Z,99091.28
2023-03-26T08:34:52.695Z,99094.25
2023-03-26T08:37:56.855Z,99091.25
2023-03-26T08:41:34.814Z,99084.22
2023-03-26T08:45:14.885Z,99092.53
2023-03-26T08:48:49.986Z,99084.44
2023-03-26T08:52:40.489Z,99087.75
2023-03-26T08:55:53.522Z,99090.25
2023-03-26T08:59:21.796Z,99097.94
2023-03-26T09:02:47.150Z,99107.31
2023-03-26T09:06:25.297Z,99111.31
2023-03-26T09:09:50.229Z,99105.34
2023-03-26T09:13:22.701Z,99118.34
2023-03-26T09:17:02.674Z,99098.00
2023-03-26T09:20:48.464Z,99092.06
2023-03-26T09:24:27.747Z,99085.25
2023-03-26T09:27:39.348Z,99076.19
2023-03-26T09:31:15.727Z,99080.06
2023-03-26T09:34:30.210Z,99083.66
2023-03-26T09:37:56.075Z,99069.84
2023-03-26T09:41:09.830Z,99077.13
2023-03-26T09:44:36.650Z,99070.53
2023-03-26T09:47:59.312Z,99063.75
2023-03-26T09:51:15.659Z,99064.19
2023-03-26T09:54:44.244Z,99061.91
2023-03-26T09:58:12.452Z,99066.91
2023-03-26T10:01:25.225Z,99058.19
2023-03-26T10:04:55.830Z,99053.38
2023-03-26T10:08:12.698Z,99049.59
2023-03-26T10:11:23.623Z,99052.69
2023-03-26T10:14:33.606Z,99031.81
2023-03-26T10:17:47.790Z,99028.28
2023-03-26T10:20:58.755Z,99025.88
2023-03-26T10:24:12.709Z,99023.06
2023-03-26T10:27:36.042Z,99017.22
2023-03-26T10:30:59.066Z,98997.03
2023-03-26T10:34:28.618Z,98987.81
2023-03-26T10:37:48.556Z,98986.19
2023-03-26T10:41:04.604Z,98979.09
2023-03-26T10:44:34.916Z,98969.31
2023-03-26T10:48:05.040Z,98968.41
2023-03-26T10:51:44.748Z,98969.44
2023-03-26T10:54:56.361Z,98955.03
2023-03-26T10:58:05.507Z,98966.16
2023-03-26T11:01:15.867Z,98959.97
2023-03-26T11:04:30.440Z,98939.69
2023-03-26T11:07:41.744Z,98950.44
2023-03-26T11:10:56.977Z,98948.97
2023-03-26T11:14:07.178Z,98940.03
2023-03-26T11:17:39.548Z,98953.78
2023-03-26T11:20:46.654Z,98924.84
2023-03-26T11:24:06.103Z,98936.38
2023-03-26T11:27:19.956Z,98914.59
2023-03-26T11:30:34.128Z,98913.72
2023-03-26T11:33:45.614Z,98906.78
2023-03-26T11:36:54.057Z,98896.47
2023-03-26T11:40:03.813Z,98897.34
2023-03-26T11:43:11.900Z,98898.25
2023-03-26T11:46:17.335Z,98896.78
2023-03-26T11:49:23.161Z,98897.50
2023-03-26T11:52:26.881Z,98897.22
2023-03-26T11:55:30.640Z,98885.50
2023-03-26T11:58:40.178Z,98887.59
2023-03-26T12:01:50.570Z,98893.41
2023-03-26T12:05:03.986Z,98890.56
2023-03-26T12:08:20.193Z,98892.81
2023-03-26T12:11:28.186Z,98889.59
2023-03-26T12:14:36.458Z,98879.06
2023-03-26T12:17:40.219Z,98861.81
2023-03-26T12:20:45.021Z,98856.28
2023-03-26T12:23:57.258Z,98853.78
2023-03-26T12:27:02.309Z,98839.78
2023-03-26T12:30:14.107Z,98834.88
2023-03-26T12:33:26.174Z,98828.50
2023-03-26T12:36:33.468Z,98823.66
2023-03-26T12:40:07.910Z,98820.25
2023-03-26T12:44:53.909Z,98829.56
2023-03-26T12:47:57.193Z,98830.94
2023-03-26T12:49:56.171Z,98835.81
2023-03-26T12:53:20.176Z,98836.38
2023-03-26T12:56:36.902Z,98847.00
2023-03-26T12:59:51.522Z,98853.31
2023-03-26T13:03:13.026Z,98857.41
2023-03-26T13:06:59.515Z,98852.47
2023-03-26T13:10:25.780Z,98835.13
2023-03-26T13:13:58.397Z,98825.66
2023-03-26T13:17:11.175Z,98806.44
2023-03-26T13:20:27.187Z,98815.91
2023-03-26T13:23:44.231Z,98804.75
2023-03-26T13:27:02.223Z,98797.66
2023-03-26T13:30:18.040Z,98789.66
2023-03-26T13:33:37.534Z,98790.34
2023-03-26T13:36:54.182Z,98784.53
2023-03-26T13:40:14.298Z,98774.84
2023-03-26T13:43:31.771Z,98761.63
2023-03-26T13:46:38.403Z,98758.16
2023-03-26T13:49:45.554Z,98760.44
2023-03-26T13:52:55.217Z,98761.50
2023-03-26T13:56:01.012Z,98785.50
2023-03-26T13:59:12.815Z,98779.44
2023-03-26T14:02:23.711Z,98772.72
2023-03-26T14:05:32.655Z,98769.97
2023-03-26T14:08:40.622Z,98764.28
2023-03-26T14:11:55.242Z,98771.59
2023-03-26T14:15:02.882Z,98756.34
2023-03-26T14:18:24.002Z,98763.59
2023-03-26T14:21:48.672Z,98763.28
2023-03-26T14:25:17.183Z,98744.47
2023-03-26T14:28:51.373Z,98738.50
2023-03-26T14:32:05.306Z,98739.75
2023-03-26T14:35:31.626Z,98745.59
2023-03-26T14:39:05.508Z,98742.38
2023-03-26T14:42:18.914Z,98739.91
2023-03-26T14:45:53.637Z,98740.34
2023-03-26T14:49:21.390Z,98736.63
2023-03-26T14:52:32.641Z,98728.44
2023-03-26T14:56:24.789Z,98723.41
2023-03-26T15:00:20.074Z,98720.00
2023-03-26T15:03:55.504Z,98726.72
2023-03-26T15:07:27.535Z,98723.97
2023-03-26T15:11:04.099Z,98725.06
2023-03-26T15:14:40.215Z,98720.22
2023-03-26T15:18:08.914Z,98712.19
2023-03-26T15:21:52.229Z,98708.19
2023-03-26T15:25:35.607Z,98710.19
2023-03-26T15:29:11.971Z,98709.59
2023-03-26T15:33:07.591Z,98699.34
2023-03-26T15:37:10.688Z,98705.91
2023-03-26T15:40:43.038Z,98715.75
2023-03-26T15:44:24.207Z,98713.97
2023-03-26T15:47:50.622Z,98706.88
2023-03-26T15:51:05.074Z,98716.22
2023-03-26T15:54:18.163Z,98713.59
2023-03-26T15:57:30.568Z,98720.75
2023-03-26T16:00:37.052Z,98731.25
2023-03-26T16:03:48.336Z,98741.53
2023-03-26T16:07:02.942Z,98736.59
2023-03-26T16:10:30.726Z,98739.44
2023-03-26T16:13:43.361Z,98747.00
2023-03-26T16:16:54.857Z,98755.78
2023-03-26T16:20:13.851Z,98756.28
2023-03-26T16:23:28.736Z,98768.91
2023-03-26T16:26:45.955Z,98757.41
2023-03-26T16:30:16.079Z,98763.69
2023-03-26T16:33:21.314Z,98780.81
2023-03-26T16:36:34.566Z,98779.69
2023-03-26T16:39:43.687Z,98779.66
2023-03-26T16:42:53.031Z,98786.88
2023-03-26T16:46:03.205Z,98793.59
2023-03-26T16:49:17.016Z,98784.75
2023-03-26T16:52:32.008Z,98788.41
2023-03-26T16:55:44.225Z,98818.59
2023-03-26T16:58:55.210Z,98821.22
2023-03-26T17:02:05.029Z,98823.94
2023-03-26T17:05:19.197Z,98835.13
2023-03-26T17:08:36.407Z,98839.06
2023-03-26T17:11:57.144Z,98853.78
2023-03-26T17:15:19.199Z,98867.72
2023-03-26T17:18:36.455Z,98857.63
2023-03-26T17:21:59.946Z,98872.25
2023-03-26T17:25:20.200Z,98884.19
2023-03-26T17:28:39.160Z,98883.22
2023-03-26T17:31:44.590Z,98883.56
2023-03-26T17:35:00.728Z,98896.91
2023-03-26T17:38:04.276Z,98889.00
2023-03-26T17:41:08.623Z,98891.28
2023-03-26T17:44:37.936Z,98896.13
2023-03-26T17:47:45.229Z,98906.28
2023-03-26T17:50:53.416Z,98904.28
2023-03-26T17:53:58.209Z,98906.03
2023-03-26T17:57:04.816Z,98911.03
2023-03-26T18:00:18.321Z,98912.06
2023-03-26T18:03:25.083Z,98905.56
2023-03-26T18:06:46.700Z,98909.78
2023-03-26T18:10:09.390Z,98900.50
2023-03-26T18:13:39.408Z,98896.44
2023-03-26T18:16:47.212Z,98900.16
2023-03-26T18:19:53.324Z,98900.56
2023-03-26T18:22:57.455Z,98903.13
2023-03-26T18:26:12.089Z,98897.88
2023-03-26T18:29:23.812Z,98902.34
2023-03-26T18:32:31.160Z,98912.38
2023-03-26T18:35:42.344Z,98914.44
2023-03-26T18:38:46.757Z,98920.50
2023-03-26T18:41:49.828Z,98911.84
2023-03-26T18:44:53.181Z,98910.50
2023-03-26T18:47:59.495Z,98919.78
2023-03-26T18:51:06.252Z,98915.84
2023-03-26T18:54:12.628Z,98915.00
2023-03-26T18:57:22.510Z,98916.59
2023-03-26T19:00:28.534Z,98906.25
2023-03-26T19:03:36.423Z,98912.34
2023-03-26T19:06:43.236Z,98914.94
2023-03-26T19:09:46.351Z,98907.13
2023-03-26T19:12:56.319Z,98908.50
2023-03-26T19:15:59.855Z,98907.53
2023-03-26T19:19:07.378Z,98904.72
2023-03-26T19:22:12.410Z,98899.22
2023-03-26T19:25:22.622Z,98904.63
2023-03-26T19:28:29.384Z,98891.88
2023-03-26T19:31:35.911Z,98902.72
2023-03-26T19:34:40.992Z,98898.81
2023-03-26T19:37:51.235Z,98899.59
2023-03-26T19:40:56.024Z,98902.19
2023-03-26T19:44:01.371Z,98902.94
2023-03-26T19:47:07.417Z,98913.03
2023-03-26T19:50:26.026Z,98911.38
2023-03-26T19:53:33.028Z,98904.91
2023-03-26T19:56:35.834Z,98910.97
2023-03-26T19:59:38.616Z,98909.03
2023-03-26T20:02:42.296Z,98917.34
2023-03-26T20:05:46.598Z,98910.09
2023-03-26T20:08:50.554Z,98925.28
2023-03-26T20:12:02.099Z,98923.53
2023-03-26T20:15:19.533Z,98929.44
2023-03-26T20:18:22.581Z,98929.63
2023-03-26T20:21:27.443Z,98926.19
2023-03-26T20:24:30.990Z,98930.59
2023-03-26T20:27:33.784Z,98933.44
2023-03-26T20:30:37.984Z,98936.00
2023-03-26T20:33:41.325Z,98941.41
2023-03-26T20:36:46.158Z,98944.03
2023-03-26T20:39:48.913Z,98945.97
2023-03-26T20:42:51.598Z,98946.81
2023-03-26T20:45:55.527Z,98950.53
2023-03-26T20:48:59.606Z,98945.97
2023-03-26T20:52:05.021Z,98947.91
2023-03-26T20:55:11.356Z,98949.84
2023-03-26T20:58:15.600Z,98940.38
2023-03-26T21:01:18.414Z,98955.44
2023-03-26T21:04:22.326Z,98950.03
2023-03-26T21:07:26.309Z,98960.84
2023-03-26T21:10:30.955Z,98962.13
2023-03-26T21:13:38.320Z,98962.13
2023-03-26T21:16:42.133Z,98970.13
2023-03-26T21:19:45.818Z,98966.47
2023-03-26T21:22:58.216Z,98964.25
2023-03-26T21:26:10.349Z,98967.91
2023-03-26T21:29:13.438Z,98972.63
2023-03-26T21:32:16.738Z,98970.03
2023-03-26T21:35:20.379Z,98981.16
2023-03-26T21:38:27.410Z,98978.84
2023-03-26T21:41:36.034Z,98986.16
2023-03-26T21:44:39.900Z,98982.78
2023-03-26T21:47:46.322Z,98977.47
2023-03-26T21:50:53.464Z,98986.69
2023-03-26T21:53:58.303Z,98987.75
2023-03-26T21:57:22.599Z,98985.53
2023-03-26T22:00:43.169Z,98999.91
2023-03-26T22:04:00.083Z,98999.81
2023-03-26T22:07:08.955Z,99003.88
2023-03-26T22:10:13.456Z,99015.06
2023-03-26T22:13:16.376Z,99014.03
2023-03-26T22:16:19.113Z,99024.19
2023-03-26T22:19:21.835Z,99029.16
2023-03-26T22:22:26.724Z,99027.97
2023-03-26T22:25:31.047Z,99031.72
2023-03-26T22:28:33.858Z,99044.25
2023-03-26T22:31:38.925Z,99059.94
2023-03-26T22:34:41.957Z,99047.16
2023-03-26T22:37:45.091Z,99060.31
2023-03-26T22:40:57.094Z,99069.88
2023-03-26T22:44:09.285Z,99083.13
2023-03-26T22:47:16.978Z,99081.72
2023-03-26T22:50:20.364Z,99095.13
2023-03-26T22:53:25.038Z,99105.25
2023-03-26T22:56:29.100Z,99117.63
2023-03-26T22:59:32.273Z,99125.78
2023-03-26T23:02:35.009Z,99129.72
2023-03-26T23:05:37.879Z,99142.19
2023-03-26T23:08:41.232Z,99155.25
2023-03-26T23:11:45.258Z,99167.09
2023-03-26T23:14:52.226Z,99182.25
2023-03-26T23:17:59.476Z,99180.72
2023-03-26T23:21:02.233Z,99200.63
2023-03-26T23:24:05.693Z,99216.25
2023-03-26T23:27:10.802Z,99225.50
2023-03-26T23:30:15.068Z,99230.16
2023-03-26T23:33:17.749Z,99245.72
2023-03-26T23:36:26.462Z,99246.84
2023-03-26T23:39:31.021Z,99258.72
2023-03-26T23:42:35.490Z,99257.88
2023-03-26T23:45:38.402Z,99276.72
2023-03-26T23:48:44.339Z,99286.44
2023-03-26T23:51:51.224Z,99303.47
2023-03-26T23:54:56.258Z,99309.00
2023-03-26T23:58:00.258Z,99319.41
